^^
Anthem North Phoenix Station Historical Data
 
Daily Summary for October 23, 2019 Units:  English    Metric   Both
Daily Weekly Monthly Yearly Custom
  Current: High: Low: Average:
Temperature: 70.5 °F 72.7 °F 69.2 °F 70.8 °F
Dew Point: 27.5 °F 28.2 °F 26.5 °F 27.4 °F
Humidity: 20% 21% 18% 20%
Wind Speed: 1mph 6mph 0mph 1.7mph
Wind Gust: 4mph 9mph - -
WindNNE - - ENE
Pressure: 29.96 in 29.98 in 29.96 in -
Precipitation: 0 in      
Historical Graphs
 
 
Tabular Data for October 23, 2019
Time Temperature Dew Point Pressure Wind Wind Speed Wind Gust Humidity Rainfall Rate (Hourly)
00:00 71.2 °F 26.8 °F 29.98 in NNE 6 mph 9 mph 19% 0 in
00:05 71.4 °F 27 °F 29.98 in North 3.9 mph 4.6 mph 19% 0 in
00:10 71.7 °F 27.2 °F 29.98 in North 2 mph 7 mph 19% 0 in
00:15 71.9 °F 27.4 °F 29.98 in NNE 3.7 mph 8.1 mph 19% 0 in
00:20 72.2 °F 27.6 °F 29.97 in NNE 3 mph 8 mph 19% 0 in
00:25 72.4 °F 26.5 °F 29.97 in North 3 mph 4.6 mph 18% 0 in
00:30 72.7 °F 26.7 °F 29.97 in Calm   8 mph 18% 0 in
00:35 72 °F 27.5 °F 29.97 in NE 2.7 mph 4.6 mph 19% 0 in
00:40 71.6 °F 27.1 °F 29.97 in North 3 mph 6 mph 19% 0 in
00:45 71.1 °F 26.7 °F 29.97 in NNE 0.7 mph 1.2 mph 19% 0 in
00:50 70.7 °F 27.6 °F 29.97 in Calm   3 mph 20% 0 in
00:55 70.3 °F 27.3 °F 29.97 in NNE 4.5 mph 5.8 mph 20% 0 in
01:00 70.6 °F 27.5 °F 29.97 in NNE 1 mph 6 mph 20% 0 in
01:05 70.5 °F 27.5 °F 29.98 in Calm     20% 0 in
01:10 69.9 °F 28.2 °F 29.97 in NNE 1 mph 3 mph 21% 0 in
01:15 69.4 °F 27.7 °F 29.97 in NE 0.2 mph 1.2 mph 21% 0 in
01:20 69.2 °F 27.6 °F 29.97 in NNE 1 mph 3 mph 21% 0 in
01:25 69.6 °F 27.9 °F 29.97 in North 0.9 mph 2.3 mph 21% 0 in
01:30 69.8 °F 26.9 °F 29.97 in Calm   3 mph 20% 0 in
01:35 70 °F 28.2 °F 29.97 in ENE 0.6 mph 1.2 mph 21% 0 in
01:40 69.8 °F 28.1 °F 29.97 in Calm   2 mph 21% 0 in
01:45 70.2 °F 27.2 °F 29.96 in NNE 1.9 mph 3.5 mph 20% 0 in
01:50 70.5 °F 27.5 °F 29.96 in NNE 1 mph 4 mph 20% 0 in
Anthen North Phoenix Weather
Compliments of Weather Underground - 1.25 mb